createdAt,value
2023-03-28T00:00:10.588Z,22.5973
2023-03-28T00:01:12.068Z,22.5965
2023-03-28T00:02:13.408Z,22.5955
2023-03-28T00:03:14.834Z,22.5938
2023-03-28T00:04:16.353Z,22.5916
2023-03-28T00:05:17.707Z,22.5852
2023-03-28T00:06:19.238Z,22.5860
2023-03-28T00:07:20.538Z,22.5848
2023-03-28T00:08:21.975Z,22.5850
2023-03-28T00:09:23.414Z,22.5864
2023-03-28T00:10:24.808Z,22.5870
2023-03-28T00:11:26.239Z,22.5868
2023-03-28T00:12:27.760Z,22.5790
2023-03-28T00:13:29.076Z,22.5844
2023-03-28T00:14:30.492Z,22.5854
2023-03-28T00:15:31.964Z,22.5817
2023-03-28T00:16:33.434Z,22.5801
2023-03-28T00:17:34.782Z,22.5829
2023-03-28T00:18:36.199Z,22.5788
2023-03-28T00:19:37.612Z,22.5815
2023-03-28T00:20:39.093Z,22.5858
2023-03-28T00:21:40.468Z,22.5772
2023-03-28T00:22:41.916Z,22.5790
2023-03-28T00:23:43.336Z,22.5749
2023-03-28T00:24:44.768Z,22.5788
2023-03-28T00:25:46.190Z,22.5721
2023-03-28T00:26:47.636Z,22.5749
2023-03-28T00:27:49.042Z,22.5729
2023-03-28T00:28:50.483Z,22.5776
2023-03-28T00:29:51.896Z,22.5721
2023-03-28T00:30:53.392Z,22.5706
2023-03-28T00:31:54.730Z,22.5692
2023-03-28T00:32:56.199Z,22.5688
2023-03-28T00:33:57.578Z,22.5663
2023-03-28T00:34:59.051Z,22.5640
2023-03-28T00:36:00.680Z,22.5698
2023-03-28T00:37:01.849Z,22.5608
2023-03-28T00:38:03.281Z,22.5612
2023-03-28T00:39:04.736Z,22.5636
2023-03-28T00:40:06.118Z,22.5647
2023-03-28T00:41:07.539Z,22.5632
2023-03-28T00:42:08.946Z,22.5599
2023-03-28T00:43:10.387Z,22.5536
2023-03-28T00:44:11.815Z,22.5560
2023-03-28T00:45:13.234Z,22.5525
2023-03-28T00:46:14.827Z,22.5486
2023-03-28T00:47:16.088Z,22.5556
2023-03-28T00:48:17.587Z,22.5569
2023-03-28T00:49:18.946Z,22.5529
2023-03-28T00:50:20.431Z,22.5564
2023-03-28T00:51:21.794Z,22.5566
2023-03-28T00:52:23.213Z,22.5507
2023-03-28T00:53:24.690Z,22.5482
2023-03-28T00:54:26.053Z,22.5462
2023-03-28T00:55:27.532Z,22.5505
2023-03-28T00:56:28.904Z,22.5468
2023-03-28T00:57:30.339Z,22.5480
2023-03-28T00:58:31.748Z,22.5468
2023-03-28T00:59:33.202Z,22.5431
2023-03-28T01:00:34.584Z,22.5437
2023-03-28T01:01:36.033Z,22.5493
2023-03-28T01:02:37.522Z,22.5377
2023-03-28T01:03:38.993Z,22.5367
2023-03-28T01:04:40.328Z,22.5429
2023-03-28T01:05:41.711Z,22.5394
2023-03-28T01:06:43.108Z,22.5367
2023-03-28T01:07:44.533Z,22.5396
2023-03-28T01:08:46.039Z,22.5417
2023-03-28T01:09:47.384Z,22.5394
2023-03-28T01:10:48.785Z,22.5343
2023-03-28T01:11:50.225Z,22.5386
2023-03-28T01:12:51.663Z,22.5363
2023-03-28T01:13:53.147Z,22.5326
2023-03-28T01:14:54.500Z,22.5355
2023-03-28T01:15:55.968Z,22.5316
2023-03-28T01:16:57.403Z,22.5279
2023-03-28T01:17:58.851Z,22.5365
2023-03-28T01:19:00.189Z,22.5345
2023-03-28T01:20:01.640Z,22.5279
2023-03-28T01:21:03.039Z,22.5293
2023-03-28T01:22:04.468Z,22.5365
2023-03-28T01:23:05.909Z,22.5295
2023-03-28T01:24:11.459Z,22.5260
2023-03-28T01:25:08.730Z,22.5347
2023-03-28T01:26:10.155Z,22.5275
2023-03-28T01:27:11.592Z,22.5207
2023-03-28T01:28:13.027Z,22.5223
2023-03-28T01:29:14.426Z,22.5273
2023-03-28T01:30:15.854Z,22.5291
2023-03-28T01:31:17.286Z,22.5265
2023-03-28T01:32:18.733Z,22.5271
2023-03-28T01:33:20.098Z,22.5277
2023-03-28T01:34:21.533Z,22.5289
2023-03-28T01:35:22.944Z,22.5199
2023-03-28T01:36:33.804Z,22.5193
2023-03-28T01:37:25.885Z,22.5116
2023-03-28T01:38:27.236Z,22.5139
2023-03-28T01:39:28.637Z,22.5176
2023-03-28T01:40:30.075Z,22.5180
2023-03-28T01:41:31.477Z,22.5186
2023-03-28T01:42:32.910Z,22.5176
2023-03-28T01:43:34.350Z,22.5164
2023-03-28T01:44:35.738Z,22.5121
2023-03-28T01:45:37.236Z,22.5096
2023-03-28T01:46:38.617Z,22.5102
2023-03-28T01:47:40.052Z,22.5104
2023-03-28T01:48:41.442Z,22.5088
2023-03-28T01:49:42.852Z,22.5059
2023-03-28T01:50:44.282Z,22.5090
2023-03-28T01:51:45.707Z,22.5080
2023-03-28T01:52:47.164Z,22.5094
2023-03-28T01:53:48.607Z,22.5043
2023-03-28T01:54:49.970Z,22.5034
2023-03-28T01:55:51.386Z,22.4981
2023-03-28T01:56:52.917Z,22.5069
2023-03-28T01:57:54.240Z,22.4991
2023-03-28T01:58:55.664Z,22.4967
2023-03-28T01:59:57.072Z,22.4983
2023-03-28T02:00:58.560Z,22.4971
2023-03-28T02:01:59.943Z,22.5002
2023-03-28T02:03:01.452Z,22.4946
2023-03-28T02:04:02.759Z,22.4983
2023-03-28T02:05:04.210Z,22.4956
2023-03-28T02:06:05.620Z,22.4993
2023-03-28T02:07:07.124Z,22.4991
2023-03-28T02:08:08.600Z,22.4936
2023-03-28T02:09:09.972Z,22.4936
2023-03-28T02:10:11.372Z,22.4911
2023-03-28T02:11:12.837Z,22.4975
2023-03-28T02:12:14.235Z,22.4854
2023-03-28T02:13:15.658Z,22.4901
2023-03-28T02:14:17.077Z,22.4891
2023-03-28T02:15:18.508Z,22.4928
2023-03-28T02:16:19.943Z,22.4870
2023-03-28T02:17:21.385Z,22.4872
2023-03-28T02:18:22.749Z,22.4868
2023-03-28T02:19:24.191Z,22.4909
2023-03-28T02:20:25.613Z,22.4913
2023-03-28T02:21:27.045Z,22.4843
2023-03-28T02:22:28.464Z,22.4850
2023-03-28T02:23:29.895Z,22.4860
2023-03-28T02:24:31.302Z,22.4815
2023-03-28T02:25:32.818Z,22.4821
2023-03-28T02:26:34.162Z,22.4866
2023-03-28T02:27:35.614Z,22.4802
2023-03-28T02:28:37.017Z,22.4759
2023-03-28T02:29:38.428Z,22.4763
2023-03-28T02:30:39.840Z,22.4825
2023-03-28T02:31:41.324Z,22.4794
2023-03-28T02:32:42.777Z,22.4837
2023-03-28T02:33:44.126Z,22.4745
2023-03-28T02:34:45.548Z,22.4755
2023-03-28T02:35:47.090Z,22.4788
2023-03-28T02:36:48.428Z,22.4772
2023-03-28T02:37:49.828Z,22.4827
2023-03-28T02:38:51.303Z,22.4691
2023-03-28T02:39:52.664Z,22.4704
2023-03-28T02:40:54.088Z,22.4716
2023-03-28T02:41:55.536Z,22.4708
2023-03-28T02:42:56.977Z,22.4714
2023-03-28T02:43:58.378Z,22.4683
2023-03-28T02:44:59.800Z,22.4720
2023-03-28T02:46:01.449Z,22.4615
2023-03-28T02:47:02.652Z,22.4689
2023-03-28T02:48:04.089Z,22.4671
2023-03-28T02:49:05.478Z,22.4615
2023-03-28T02:50:06.921Z,22.4620
2023-03-28T02:51:08.352Z,22.4558
2023-03-28T02:52:09.766Z,22.4515
2023-03-28T02:53:11.188Z,22.4607
2023-03-28T02:54:12.604Z,22.4572
2023-03-28T02:55:14.009Z,22.4562
2023-03-28T02:56:15.459Z,22.4632
2023-03-28T02:57:17.034Z,22.4574
2023-03-28T02:58:18.277Z,22.4613
2023-03-28T02:59:19.706Z,22.4601
2023-03-28T03:00:21.130Z,22.4580
2023-03-28T03:01:22.581Z,22.4527
2023-03-28T03:02:24.046Z,22.4560
2023-03-28T03:03:25.411Z,22.4513
2023-03-28T03:04:26.802Z,22.4593
2023-03-28T03:05:28.233Z,22.4523
2023-03-28T03:06:29.649Z,22.4505
2023-03-28T03:07:31.076Z,22.4529
2023-03-28T03:08:32.496Z,22.4437
2023-03-28T03:09:33.934Z,22.4447
2023-03-28T03:10:35.336Z,22.4418
2023-03-28T03:11:36.808Z,22.4463
2023-03-28T03:12:38.190Z,22.4424
2023-03-28T03:13:39.628Z,22.4394
2023-03-28T03:14:41.045Z,22.4408
2023-03-28T03:15:42.493Z,22.4426
2023-03-28T03:16:43.937Z,22.4468
2023-03-28T03:17:45.368Z,22.4328
2023-03-28T03:18:46.741Z,22.4392
2023-03-28T03:19:48.185Z,22.4318
2023-03-28T03:20:49.609Z,22.4330
2023-03-28T03:21:51.017Z,22.4293
2023-03-28T03:22:52.455Z,22.4240
2023-03-28T03:23:53.892Z,22.4307
2023-03-28T03:24:55.291Z,22.4313
2023-03-28T03:25:56.813Z,22.4297
2023-03-28T03:26:58.144Z,22.4209
2023-03-28T03:27:59.586Z,22.4143
2023-03-28T03:29:01.005Z,22.4096
2023-03-28T03:30:02.414Z,22.3966
2023-03-28T03:31:03.906Z,22.3954
2023-03-28T03:32:05.268Z,22.3876
2023-03-28T03:33:06.780Z,22.3911
2023-03-28T03:34:08.140Z,22.3851
2023-03-28T03:35:09.588Z,22.3849
2023-03-28T03:36:10.984Z,22.3843
2023-03-28T03:37:12.394Z,22.3847
2023-03-28T03:38:13.865Z,22.3901
2023-03-28T03:39:15.244Z,22.3874
2023-03-28T03:40:16.692Z,22.3837
2023-03-28T03:41:18.104Z,22.3862
2023-03-28T03:42:19.557Z,22.3964
2023-03-28T03:43:20.955Z,22.3816
2023-03-28T03:44:22.425Z,22.3888
2023-03-28T03:45:23.791Z,22.3878
2023-03-28T03:46:25.282Z,22.3837
2023-03-28T03:47:26.671Z,22.3901
2023-03-28T03:48:28.078Z,22.3794
2023-03-28T03:49:29.530Z,22.3894
2023-03-28T03:50:30.937Z,22.3897
2023-03-28T03:51:32.353Z,22.3913
2023-03-28T03:52:33.778Z,22.3888
2023-03-28T03:53:35.218Z,22.3968
2023-03-28T03:54:38.182Z,22.4007
2023-03-28T03:55:38.058Z,22.3948
2023-03-28T03:56:39.560Z,22.4016
2023-03-28T03:57:40.872Z,22.3991
2023-03-28T03:58:42.307Z,22.3970
2023-03-28T03:59:43.709Z,22.3944
2023-03-28T04:00:45.150Z,22.4075
2023-03-28T04:01:46.584Z,22.4026
2023-03-28T04:02:48.107Z,22.4100
2023-03-28T04:03:49.428Z,22.4145
2023-03-28T04:04:50.838Z,22.4114
2023-03-28T04:05:52.266Z,22.3989
2023-03-28T04:06:54.602Z,22.3915
2023-03-28T04:07:55.295Z,22.3839
2023-03-28T04:08:56.526Z,22.3864
2023-03-28T04:09:57.956Z,22.3747
2023-03-28T04:10:59.385Z,22.3695
2023-03-28T04:12:00.770Z,22.3646
2023-03-28T04:13:02.191Z,22.3588
2023-03-28T04:14:03.606Z,22.3549
2023-03-28T04:15:05.063Z,22.3625
2023-03-28T04:16:06.464Z,22.3619
2023-03-28T04:17:07.897Z,22.3691
2023-03-28T04:18:09.876Z,22.3629
2023-03-28T04:19:10.797Z,22.3601
2023-03-28T04:20:12.152Z,22.3586
2023-03-28T04:21:13.598Z,22.3603
2023-03-28T04:22:15.006Z,22.3545
2023-03-28T04:23:16.423Z,22.3595
2023-03-28T04:24:17.841Z,22.3574
2023-03-28T04:25:19.281Z,22.3477
2023-03-28T04:26:20.667Z,22.3517
2023-03-28T04:27:22.103Z,22.3471
2023-03-28T04:28:23.519Z,22.3597
2023-03-28T04:29:25.017Z,22.3436
2023-03-28T04:30:26.407Z,22.3447
2023-03-28T04:31:27.839Z,22.3383
2023-03-28T04:32:29.265Z,22.3391
2023-03-28T04:33:30.653Z,22.3391
2023-03-28T04:34:32.074Z,22.3352
2023-03-28T04:35:33.589Z,22.3350
2023-03-28T04:36:34.929Z,22.3385
2023-03-28T04:37:36.328Z,22.3367
2023-03-28T04:38:37.767Z,22.3556
2023-03-28T04:39:39.174Z,22.3556
2023-03-28T04:40:40.600Z,22.3623
2023-03-28T04:41:42.119Z,22.3718
2023-03-28T04:42:43.466Z,22.3603
2023-03-28T04:43:44.889Z,22.3677
2023-03-28T04:44:46.322Z,22.3595
2023-03-28T04:45:47.782Z,22.3597
2023-03-28T04:46:49.164Z,22.3619
2023-03-28T04:47:50.618Z,22.3738
2023-03-28T04:48:56.500Z,22.3736
2023-03-28T04:49:53.454Z,22.3785
2023-03-28T04:50:54.852Z,22.3685
2023-03-28T04:51:56.278Z,22.3728
2023-03-28T04:52:57.726Z,22.3827
2023-03-28T04:53:59.119Z,22.3823
2023-03-28T04:55:00.541Z,22.3599
2023-03-28T04:56:02.157Z,22.3556
2023-03-28T04:57:03.405Z,22.3615
2023-03-28T04:58:04.826Z,22.3576
2023-03-28T04:59:06.225Z,22.3535
2023-03-28T05:00:07.682Z,22.3490
2023-03-28T05:01:09.089Z,22.3426
2023-03-28T05:02:10.553Z,22.3200
2023-03-28T05:03:13.156Z,22.2982
2023-03-28T05:04:13.346Z,22.2941
2023-03-28T05:05:14.758Z,22.2900
2023-03-28T05:06:16.198Z,22.2804
2023-03-28T05:07:17.617Z,22.2744
2023-03-28T05:08:19.063Z,22.2740
2023-03-28T05:09:20.460Z,22.2574
2023-03-28T05:10:21.941Z,22.2545
2023-03-28T05:11:23.340Z,22.2543
2023-03-28T05:12:24.761Z,22.2598
2023-03-28T05:13:26.166Z,22.2664
2023-03-28T05:14:27.597Z,22.2590
2023-03-28T05:15:29.014Z,22.2485
2023-03-28T05:16:30.512Z,21.9657
2023-03-28T05:17:31.878Z,21.4553
2023-03-28T05:18:33.275Z,20.9691
2023-03-28T05:19:34.692Z,20.6581
2023-03-28T05:20:36.132Z,20.4321
2023-03-28T05:21:37.552Z,20.2109
2023-03-28T05:22:39.047Z,20.5322
2023-03-28T05:23:40.415Z,20.7815
2023-03-28T05:24:41.842Z,20.9537
2023-03-28T05:25:43.259Z,21.0839
2023-03-28T05:26:44.687Z,21.1856
2023-03-28T05:27:46.130Z,21.2585
2023-03-28T05:28:47.548Z,21.3111
2023-03-28T05:29:48.978Z,21.3425
2023-03-28T05:30:50.400Z,21.3836
2023-03-28T05:31:51.918Z,21.3957
2023-03-28T05:32:53.283Z,21.4090
2023-03-28T05:33:54.679Z,21.4049
2023-03-28T05:34:56.106Z,21.4218
2023-03-28T05:35:57.577Z,21.4339
2023-03-28T05:36:58.995Z,21.4382
2023-03-28T05:38:00.453Z,21.4298
2023-03-28T05:39:01.862Z,21.4308
2023-03-28T05:40:03.236Z,21.4624
2023-03-28T05:41:04.662Z,21.4883
2023-03-28T05:42:06.111Z,21.4433
2023-03-28T05:43:07.549Z,21.4651
2023-03-28T05:44:08.944Z,21.4663
2023-03-28T05:45:10.376Z,21.4594
2023-03-28T05:46:11.812Z,21.4750
2023-03-28T05:47:13.292Z,21.5105
2023-03-28T05:48:14.654Z,21.5350
2023-03-28T05:49:16.087Z,21.5469
2023-03-28T05:50:17.519Z,21.5635
2023-03-28T05:51:18.939Z,21.5873
2023-03-28T05:52:20.378Z,21.6081
2023-03-28T05:53:21.800Z,21.6432
2023-03-28T05:54:23.197Z,21.6547
2023-03-28T05:55:24.661Z,21.6773
2023-03-28T05:56:26.064Z,21.6919
2023-03-28T05:57:27.490Z,21.7007
2023-03-28T05:58:28.910Z,21.7174
2023-03-28T05:59:30.352Z,21.7274
2023-03-28T06:00:31.771Z,21.7323
2023-03-28T06:01:33.190Z,21.7365
2023-03-28T06:02:34.673Z,21.7247
2023-03-28T06:03:36.072Z,21.7556
2023-03-28T06:04:37.517Z,21.7827
2023-03-28T06:05:38.881Z,21.7995
2023-03-28T06:06:40.278Z,21.8225
2023-03-28T06:07:42.844Z,21.8338
2023-03-28T06:08:43.138Z,21.8472
2023-03-28T06:09:44.661Z,21.8603
2023-03-28T06:10:46.098Z,21.8753
2023-03-28T06:11:47.492Z,21.8963
2023-03-28T06:12:48.992Z,21.9039
2023-03-28T06:13:50.359Z,21.9180
2023-03-28T06:14:51.772Z,21.9361
2023-03-28T06:15:53.237Z,21.9521
2023-03-28T06:16:54.646Z,21.9716
2023-03-28T06:17:56.104Z,21.9850
2023-03-28T06:19:06.840Z,22.0033
2023-03-28T06:19:58.956Z,22.0202
2023-03-28T06:21:00.490Z,22.0392
2023-03-28T06:22:02.782Z,22.0844
2023-03-28T06:23:03.135Z,22.1524
2023-03-28T06:24:04.600Z,22.2280
2023-03-28T06:25:05.981Z,22.3056
2023-03-28T06:26:07.414Z,22.3685
2023-03-28T06:27:08.833Z,22.4318
2023-03-28T06:28:10.257Z,22.4854
2023-03-28T06:29:11.671Z,22.5369
2023-03-28T06:30:13.212Z,22.5686
2023-03-28T06:31:14.561Z,22.6123
2023-03-28T06:32:15.970Z,22.6567
2023-03-28T06:33:17.416Z,22.6873
2023-03-28T06:34:18.856Z,22.7339
2023-03-28T06:35:20.253Z,22.7709
2023-03-28T06:36:21.662Z,22.8177
2023-03-28T06:37:23.166Z,22.8434
2023-03-28T06:38:24.545Z,22.8781
2023-03-28T06:39:25.935Z,22.9350
2023-03-28T06:40:27.440Z,22.9697
2023-03-28T06:41:28.846Z,23.0096
2023-03-28T06:42:30.230Z,23.0375
2023-03-28T06:43:31.698Z,23.0870
2023-03-28T06:44:33.092Z,23.1190
2023-03-28T06:45:34.488Z,23.1371
2023-03-28T06:46:35.964Z,23.1552
2023-03-28T06:47:37.409Z,23.2024
2023-03-28T06:48:38.777Z,23.2392
2023-03-28T06:49:40.224Z,23.2674
2023-03-28T06:50:41.623Z,23.3150
2023-03-28T06:51:43.031Z,23.3596
2023-03-28T06:52:44.483Z,23.3863
2023-03-28T06:53:45.914Z,23.4239
2023-03-28T06:54:48.555Z,23.4602
2023-03-28T06:55:48.764Z,23.4795
2023-03-28T06:56:50.230Z,23.5132
2023-03-28T06:57:51.670Z,23.5455
2023-03-28T06:58:53.034Z,23.5822
2023-03-28T06:59:54.450Z,23.6038
2023-03-28T07:00:55.880Z,23.6508
2023-03-28T07:01:57.388Z,23.6862
2023-03-28T07:02:58.826Z,23.7080
2023-03-28T07:04:00.248Z,23.7386
2023-03-28T07:05:01.622Z,23.7612
2023-03-28T07:06:03.012Z,23.7936
2023-03-28T07:07:04.473Z,23.8281
2023-03-28T07:08:05.855Z,23.8560
2023-03-28T07:09:07.355Z,23.8821
2023-03-28T07:10:08.686Z,23.8992
2023-03-28T07:11:10.125Z,23.9201
2023-03-28T07:12:11.525Z,23.9446
2023-03-28T07:13:12.962Z,23.9881
2023-03-28T07:14:14.387Z,24.0245
2023-03-28T07:15:17.771Z,24.0395
2023-03-28T07:16:17.292Z,24.0744
2023-03-28T07:17:18.636Z,24.1068
2023-03-28T07:18:20.064Z,24.1264
2023-03-28T07:19:21.527Z,24.1504
2023-03-28T07:20:22.913Z,24.1789
2023-03-28T07:21:24.338Z,24.2108
2023-03-28T07:22:25.749Z,24.2334
2023-03-28T07:23:27.164Z,24.2580
2023-03-28T07:24:28.785Z,24.2849
2023-03-28T07:25:29.996Z,24.3055
2023-03-28T07:26:31.430Z,24.3420
2023-03-28T07:27:32.863Z,24.3667
2023-03-28T07:28:34.273Z,24.3868
2023-03-28T07:29:35.748Z,24.3989
2023-03-28T07:30:37.129Z,24.4201
2023-03-28T07:31:38.582Z,24.4045
2023-03-28T07:32:53.341Z,24.4063
2023-03-28T07:33:41.423Z,24.4698
2023-03-28T07:34:42.854Z,24.4263
2023-03-28T07:35:44.251Z,24.2350
2023-03-28T07:36:45.661Z,24.1294
2023-03-28T07:37:47.065Z,24.1459
2023-03-28T07:38:49.205Z,24.2866
2023-03-28T07:39:49.935Z,24.2502
2023-03-28T07:40:51.351Z,24.1806
2023-03-28T07:41:52.755Z,24.2823
2023-03-28T07:42:54.175Z,24.4002
2023-03-28T07:43:55.617Z,24.4601
2023-03-28T07:44:57.061Z,24.5117
2023-03-28T07:45:58.448Z,24.5364
2023-03-28T07:46:59.906Z,24.5672
2023-03-28T07:48:01.296Z,24.5976
2023-03-28T07:49:02.713Z,24.6119
2023-03-28T07:50:04.139Z,24.5653
2023-03-28T07:51:05.545Z,24.5791
2023-03-28T07:52:06.958Z,24.6530
2023-03-28T07:53:08.385Z,24.5316
2023-03-28T07:54:09.803Z,24.4630
2023-03-28T07:55:11.251Z,24.5742
2023-03-28T07:56:12.711Z,24.6417
2023-03-28T07:57:14.133Z,24.6832
2023-03-28T07:58:15.473Z,24.6039
2023-03-28T07:59:16.911Z,24.6271
2023-03-28T08:00:18.342Z,24.7075
2023-03-28T08:01:19.795Z,24.7496
2023-03-28T08:02:21.229Z,24.6894
2023-03-28T08:03:22.789Z,24.6569
2023-03-28T08:04:24.033Z,24.6697
2023-03-28T08:05:25.531Z,24.7278
2023-03-28T08:06:32.358Z,24.7639
2023-03-28T08:07:28.298Z,24.8456
2023-03-28T08:08:29.712Z,24.8934
2023-03-28T08:09:31.179Z,24.9065
2023-03-28T08:10:32.553Z,24.7773
2023-03-28T08:11:34.027Z,24.7270
2023-03-28T08:12:35.414Z,24.8519
2023-03-28T08:13:36.857Z,24.9186
2023-03-28T08:14:38.248Z,24.9326
2023-03-28T08:15:39.721Z,24.9591
2023-03-28T08:16:41.091Z,25.0012
2023-03-28T08:17:42.548Z,25.0365
2023-03-28T08:18:43.986Z,25.0755
2023-03-28T08:19:45.372Z,25.1119
2023-03-28T08:20:46.795Z,25.1314
2023-03-28T08:21:48.281Z,25.1460
2023-03-28T08:22:49.669Z,25.1368
2023-03-28T08:23:51.079Z,25.1511
2023-03-28T08:24:52.502Z,25.1770
2023-03-28T08:25:53.934Z,25.1982
2023-03-28T08:26:55.372Z,25.2228
2023-03-28T08:27:56.777Z,25.2598
2023-03-28T08:28:58.257Z,25.2849
2023-03-28T08:29:59.661Z,25.2471
2023-03-28T08:31:01.217Z,25.2440
2023-03-28T08:32:02.474Z,25.2573
2023-03-28T08:33:04.186Z,25.2199
2023-03-28T08:34:05.314Z,25.1828
2023-03-28T08:35:06.729Z,25.0139
2023-03-28T08:36:08.184Z,24.9123
2023-03-28T08:37:09.574Z,24.8434
2023-03-28T08:38:11.527Z,24.7436
2023-03-28T08:39:12.428Z,24.6631
2023-03-28T08:40:13.862Z,24.6518
2023-03-28T08:41:15.269Z,24.6434
2023-03-28T08:42:16.713Z,24.5659
2023-03-28T08:43:18.147Z,24.4852
2023-03-28T08:44:19.589Z,24.3566
2023-03-28T08:45:20.999Z,24.2375
2023-03-28T08:46:22.432Z,24.2808
2023-03-28T08:47:23.823Z,24.2611
2023-03-28T08:48:25.286Z,24.2229
2023-03-28T08:49:26.696Z,24.1662
2023-03-28T08:50:28.122Z,24.1280
2023-03-28T08:51:29.530Z,24.1545
2023-03-28T08:52:30.965Z,24.2677
2023-03-28T08:53:32.439Z,24.3671
2023-03-28T08:54:33.808Z,24.4601
2023-03-28T08:55:35.227Z,24.5563
2023-03-28T08:56:36.677Z,24.6329
2023-03-28T08:57:38.107Z,24.6738
2023-03-28T08:58:39.512Z,24.7202
2023-03-28T08:59:40.915Z,24.7699
2023-03-28T09:00:42.371Z,24.8247
2023-03-28T09:01:43.779Z,24.8656
2023-03-28T09:02:45.285Z,24.8958
2023-03-28T09:03:46.705Z,24.9314
2023-03-28T09:04:48.048Z,24.9572
2023-03-28T09:05:49.514Z,24.9741
2023-03-28T09:06:50.908Z,24.9821
2023-03-28T09:07:52.320Z,24.9985
2023-03-28T09:08:53.767Z,25.0363
2023-03-28T09:09:55.191Z,25.0458
2023-03-28T09:10:56.674Z,25.0495
2023-03-28T09:11:58.048Z,25.0603
2023-03-28T09:12:59.662Z,25.0819
2023-03-28T09:14:00.918Z,25.1029
2023-03-28T09:15:02.361Z,25.1343
2023-03-28T09:16:03.784Z,25.1396
2023-03-28T09:17:05.208Z,25.1526
2023-03-28T09:18:06.827Z,25.1733
2023-03-28T09:19:08.072Z,25.2041
2023-03-28T09:20:09.728Z,25.2206
2023-03-28T09:21:10.926Z,25.2290
2023-03-28T09:22:15.885Z,25.2403
2023-03-28T09:23:13.798Z,25.2425
2023-03-28T09:24:15.166Z,25.2321
2023-03-28T09:25:16.598Z,25.2460
2023-03-28T09:26:18.023Z,25.2193
2023-03-28T09:27:19.478Z,25.2187
2023-03-28T09:28:20.880Z,25.2195
2023-03-28T09:29:22.329Z,25.2167
2023-03-28T09:30:23.760Z,25.2064
2023-03-28T09:31:27.157Z,25.2006
2023-03-28T09:32:26.593Z,25.1856
2023-03-28T09:33:28.038Z,25.1752
2023-03-28T09:34:29.453Z,25.1678
2023-03-28T09:35:30.868Z,25.1552
2023-03-28T09:36:45.596Z,25.1783
2023-03-28T09:37:33.726Z,25.1961
2023-03-28T09:38:35.136Z,25.2029
2023-03-28T09:39:36.615Z,25.2144
2023-03-28T09:40:37.988Z,25.1984
2023-03-28T09:41:39.426Z,25.2084
2023-03-28T09:42:40.846Z,25.2033
2023-03-28T09:43:42.283Z,25.2035
2023-03-28T09:44:52.921Z,25.2152
2023-03-28T09:45:45.164Z,25.2270
2023-03-28T09:46:46.590Z,25.2148
2023-03-28T09:47:48.136Z,25.2179
2023-03-28T09:48:49.652Z,25.2245
2023-03-28T09:49:56.642Z,25.2126
2023-03-28T09:50:52.258Z,25.2566
2023-03-28T09:51:53.679Z,25.2602
2023-03-28T09:52:55.104Z,25.2399
2023-03-28T09:53:56.527Z,25.2787
2023-03-28T09:54:57.981Z,25.2565
2023-03-28T09:56:04.533Z,25.2460
2023-03-28T09:57:00.832Z,25.2842
2023-03-28T09:58:02.328Z,25.3247
2023-03-28T09:59:03.642Z,25.3705
2023-03-28T10:00:05.081Z,25.3775
2023-03-28T10:01:06.517Z,25.3693
2023-03-28T10:02:07.925Z,25.4130
2023-03-28T10:03:09.377Z,25.4194
2023-03-28T10:04:10.778Z,25.3987
2023-03-28T10:05:12.259Z,25.4038
2023-03-28T10:06:13.630Z,25.4108
2023-03-28T10:07:15.058Z,25.4219
2023-03-28T10:08:16.502Z,25.4278
2023-03-28T10:09:17.924Z,25.4508
2023-03-28T10:10:19.388Z,25.4652
2023-03-28T10:11:20.881Z,25.4693
2023-03-28T10:12:22.317Z,25.4829
2023-03-28T10:13:23.743Z,25.5262
2023-03-28T10:14:25.173Z,25.5346
2023-03-28T10:15:26.681Z,25.5133
2023-03-28T10:16:28.052Z,25.5139
2023-03-28T10:17:29.464Z,25.5090
2023-03-28T10:18:30.881Z,25.5116
2023-03-28T10:19:32.297Z,25.5012
2023-03-28T10:20:33.753Z,25.5250
2023-03-28T10:21:35.153Z,25.5320
2023-03-28T10:22:36.575Z,25.5149
2023-03-28T10:23:37.994Z,25.5287
2023-03-28T10:24:39.418Z,25.5593
2023-03-28T10:25:40.842Z,25.6014
2023-03-28T10:26:42.280Z,25.6240
2023-03-28T10:27:43.678Z,25.6264
2023-03-28T10:28:45.121Z,25.6304
2023-03-28T10:29:46.528Z,25.6078
2023-03-28T10:30:48.036Z,25.5979
2023-03-28T10:31:49.389Z,25.6131
2023-03-28T10:32:50.838Z,25.6267
2023-03-28T10:33:52.226Z,25.6063
2023-03-28T10:34:53.663Z,25.6538
2023-03-28T10:35:55.111Z,25.6821
2023-03-28T10:36:56.528Z,25.6942
2023-03-28T10:37:57.945Z,25.7041
2023-03-28T10:38:59.375Z,25.6694
2023-03-28T10:40:00.864Z,25.6762
2023-03-28T10:41:02.455Z,25.6675
2023-03-28T10:42:03.644Z,25.6589
2023-03-28T10:43:05.091Z,25.6694
2023-03-28T10:44:06.517Z,25.6704
2023-03-28T10:45:07.949Z,25.6509
2023-03-28T10:46:09.402Z,25.6453
2023-03-28T10:47:10.794Z,25.6318
2023-03-28T10:48:12.212Z,25.6762
2023-03-28T10:49:13.671Z,25.6907
2023-03-28T10:50:15.061Z,25.7002
2023-03-28T10:51:16.528Z,25.6998
2023-03-28T10:52:17.920Z,25.6990
2023-03-28T10:53:19.372Z,25.7166
2023-03-28T10:54:20.775Z,25.7029
2023-03-28T10:55:22.228Z,25.6821
2023-03-28T10:56:23.632Z,25.6936
2023-03-28T10:57:25.116Z,25.6918
2023-03-28T10:58:26.564Z,25.7107
2023-03-28T10:59:27.915Z,25.7068
2023-03-28T11:00:29.348Z,25.7316
2023-03-28T11:01:33.185Z,25.7407
2023-03-28T11:02:32.315Z,25.7394
2023-03-28T11:03:33.724Z,25.7433
2023-03-28T11:04:35.047Z,25.7567
2023-03-28T11:05:36.461Z,25.7384
2023-03-28T11:06:37.892Z,25.7168
2023-03-28T11:07:39.328Z,25.6877
2023-03-28T11:08:40.760Z,25.7008
2023-03-28T11:09:42.192Z,25.7306
2023-03-28T11:10:43.603Z,25.7466
2023-03-28T11:11:45.056Z,25.7536
2023-03-28T11:13:47.893Z,25.7610
2023-03-28T11:14:49.354Z,25.7329
2023-03-28T11:15:50.792Z,25.7388
2023-03-28T11:16:52.169Z,25.7433
2023-03-28T11:17:53.663Z,25.7690
2023-03-28T11:18:55.010Z,25.7505
2023-03-28T11:19:56.443Z,25.7803
2023-03-28T11:20:58.010Z,25.7863
2023-03-28T11:21:59.275Z,25.8015
2023-03-28T11:23:06.295Z,25.8134
2023-03-28T11:24:02.180Z,25.7695
2023-03-28T11:25:03.546Z,25.7809
2023-03-28T11:26:04.959Z,25.7704
2023-03-28T11:27:15.367Z,25.8146
2023-03-28T11:28:07.800Z,25.8207
2023-03-28T11:29:09.223Z,25.8121
2023-03-28T11:30:10.639Z,25.8288
2023-03-28T11:31:12.069Z,25.8522
2023-03-28T11:32:13.517Z,25.8132
2023-03-28T11:33:14.904Z,25.8300
2023-03-28T11:34:16.361Z,25.8128
2023-03-28T11:35:17.765Z,25.8113
2023-03-28T11:36:19.213Z,25.8349
2023-03-28T11:37:20.613Z,25.8448
2023-03-28T11:38:22.061Z,25.8076
2023-03-28T11:39:23.482Z,25.8130
2023-03-28T11:40:24.895Z,25.7939
2023-03-28T11:41:26.306Z,25.7871
2023-03-28T11:42:27.736Z,25.7986
2023-03-28T11:43:29.177Z,25.8084
2023-03-28T11:44:30.608Z,25.7976
2023-03-28T11:45:47.789Z,25.7785
2023-03-28T11:46:33.469Z,25.7925
2023-03-28T11:47:34.890Z,25.7920
2023-03-28T11:48:36.334Z,25.7780
2023-03-28T11:49:37.698Z,25.7476
2023-03-28T11:50:39.156Z,25.7154
2023-03-28T11:51:40.572Z,25.6817
2023-03-28T11:52:41.991Z,25.6801
2023-03-28T11:53:43.419Z,25.6608
2023-03-28T11:54:44.850Z,25.6304
2023-03-28T11:55:46.290Z,25.6043
2023-03-28T11:56:47.718Z,25.5893
2023-03-28T11:57:49.128Z,25.5889
2023-03-28T11:58:50.535Z,25.6129
2023-03-28T11:59:51.980Z,25.6396
2023-03-28T12:00:53.432Z,25.6287
2023-03-28T12:01:54.849Z,25.6503
2023-03-28T12:02:56.318Z,25.6992
2023-03-28T12:03:57.776Z,25.7624
2023-03-28T12:04:59.103Z,25.8399
2023-03-28T12:06:04.833Z,25.8692
2023-03-28T12:07:03.149Z,25.9077
2023-03-28T12:08:03.383Z,25.9231
2023-03-28T12:09:04.794Z,25.9313
2023-03-28T12:10:06.231Z,25.9395
2023-03-28T12:11:07.652Z,25.9459
2023-03-28T12:12:09.118Z,25.9758
2023-03-28T12:13:10.484Z,25.9923
2023-03-28T12:14:12.642Z,26.0050
2023-03-28T12:15:13.370Z,26.0412
2023-03-28T12:16:14.823Z,26.0557
2023-03-28T12:17:16.206Z,26.0247
2023-03-28T12:18:17.626Z,26.0309
2023-03-28T12:19:19.059Z,25.9884
2023-03-28T12:20:22.522Z,25.9526
2023-03-28T12:21:21.908Z,25.9360
2023-03-28T12:22:23.341Z,25.9058
2023-03-28T12:23:24.749Z,25.9050